createdAt,value
2019-03-09T00:01:24.252Z,9.61
2019-03-09T00:03:53.473Z,9.59
2019-03-09T00:06:22.707Z,9.61
2019-03-09T00:08:51.834Z,9.56
2019-03-09T00:11:20.934Z,9.50
2019-03-09T00:13:50.168Z,9.59
2019-03-09T00:16:19.341Z,9.57
2019-03-09T00:18:48.924Z,9.60
2019-03-09T00:21:18.308Z,9.57
2019-03-09T00:23:59.139Z,9.55
2019-03-09T00:26:38.450Z,9.70
2019-03-09T00:29:15.741Z,9.66
2019-03-09T00:31:54.558Z,9.77
2019-03-09T00:34:23.682Z,9.73
2019-03-09T00:36:52.834Z,9.85
2019-03-09T00:39:22.325Z,9.75
2019-03-09T00:41:53.301Z,9.70
2019-03-09T00:44:22.367Z,9.71
2019-03-09T00:46:51.743Z,9.70
2019-03-09T00:49:21.289Z,9.86
2019-03-09T00:51:50.397Z,9.86
2019-03-09T00:54:19.602Z,9.91
2019-03-09T00:56:48.682Z,9.81
2019-03-09T00:59:17.920Z,9.82
2019-03-09T01:01:47.186Z,9.73
2019-03-09T01:04:16.360Z,9.82
2019-03-09T01:06:45.667Z,9.80
2019-03-09T01:09:14.798Z,9.85
2019-03-09T01:11:43.991Z,9.78
2019-03-09T01:14:13.131Z,9.81
2019-03-09T01:16:42.379Z,9.72
2019-03-09T01:19:11.607Z,9.67
2019-03-09T01:21:40.955Z,9.60
2019-03-09T01:24:10.079Z,9.76
2019-03-09T01:26:39.170Z,9.82
2019-03-09T01:29:08.279Z,9.85
2019-03-09T01:31:37.685Z,9.83
2019-03-09T01:34:06.855Z,9.75
2019-03-09T01:36:36.068Z,9.77
2019-03-09T01:39:06.441Z,9.71
2019-03-09T01:41:35.766Z,9.78
2019-03-09T01:44:04.973Z,9.74
2019-03-09T01:46:34.074Z,9.69
2019-03-09T01:49:03.300Z,9.66
2019-03-09T01:51:32.369Z,9.70
2019-03-09T01:54:01.627Z,9.77
2019-03-09T01:56:30.791Z,9.80
2019-03-09T01:59:00.283Z,9.78
2019-03-09T02:01:29.375Z,9.76
2019-03-09T02:03:58.459Z,9.70
2019-03-09T02:06:27.714Z,9.85
2019-03-09T02:08:56.834Z,9.76
2019-03-09T02:11:26.503Z,9.87
2019-03-09T02:13:55.591Z,9.77
2019-03-09T02:16:24.671Z,9.85
2019-03-09T02:18:53.843Z,9.84
2019-03-09T02:21:25.021Z,9.84
2019-03-09T02:23:54.221Z,9.84
2019-03-09T02:26:23.466Z,9.88
2019-03-09T02:28:52.601Z,9.92
2019-03-09T02:31:21.925Z,9.88
2019-03-09T02:33:51.090Z,9.96
2019-03-09T02:36:20.316Z,9.93
2019-03-09T02:39:07.275Z,9.93
2019-03-09T02:41:36.560Z,9.91
2019-03-09T02:44:05.815Z,9.82
2019-03-09T02:46:40.525Z,9.89
2019-03-09T02:49:10.554Z,9.92
2019-03-09T02:51:40.144Z,9.87
2019-03-09T02:54:09.214Z,9.94
2019-03-09T02:56:38.414Z,9.97
2019-03-09T02:59:07.741Z,9.98
2019-03-09T03:02:07.792Z,10.05
2019-03-09T03:04:36.853Z,9.97
2019-03-09T03:07:05.977Z,9.98
2019-03-09T03:09:35.056Z,9.99
2019-03-09T03:12:04.317Z,9.98
2019-03-09T03:14:33.397Z,10.06
2019-03-09T03:17:02.491Z,9.94
2019-03-09T03:19:31.977Z,10.00
2019-03-09T03:22:01.093Z,10.02
2019-03-09T03:24:30.156Z,9.99
2019-03-09T03:26:59.389Z,9.96
2019-03-09T03:29:28.686Z,9.94
2019-03-09T03:31:57.908Z,9.89
2019-03-09T03:34:27.002Z,9.86
2019-03-09T03:36:56.261Z,9.90
2019-03-09T03:39:25.406Z,9.83
2019-03-09T03:41:54.611Z,9.88
2019-03-09T03:44:23.892Z,9.92
2019-03-09T03:46:53.300Z,9.92
2019-03-09T03:49:22.449Z,9.97
2019-03-09T03:51:51.521Z,9.96
2019-03-09T03:54:20.708Z,9.88
2019-03-09T03:56:50.081Z,9.83
2019-03-09T03:59:19.311Z,9.81
2019-03-09T04:01:48.488Z,9.72
2019-03-09T04:04:17.600Z,9.65
2019-03-09T04:06:46.793Z,9.48
2019-03-09T04:09:16.254Z,9.36
2019-03-09T04:11:45.327Z,9.22
2019-03-09T04:14:14.590Z,9.21
2019-03-09T04:16:44.765Z,9.16
2019-03-09T04:19:14.051Z,9.17
2019-03-09T04:21:43.324Z,9.08
2019-03-09T04:24:12.460Z,9.00
2019-03-09T04:26:41.557Z,8.90
2019-03-09T04:29:11.100Z,8.84
2019-03-09T04:31:40.184Z,8.81
2019-03-09T04:34:09.319Z,8.83
2019-03-09T04:36:38.580Z,8.72
2019-03-09T04:39:07.948Z,8.65
2019-03-09T04:41:37.024Z,8.62
2019-03-09T04:44:06.359Z,8.55
2019-03-09T04:46:35.401Z,8.49
2019-03-09T04:49:04.685Z,8.46
2019-03-09T04:51:33.838Z,8.43
2019-03-09T04:54:03.075Z,8.37
2019-03-09T04:56:32.379Z,8.30
2019-03-09T04:59:01.595Z,8.26
2019-03-09T05:01:30.701Z,8.33
2019-03-09T05:04:44.183Z,8.18
2019-03-09T05:07:17.207Z,8.16
2019-03-09T05:09:59.304Z,8.07
2019-03-09T05:12:28.409Z,8.09
2019-03-09T05:14:57.502Z,8.05
2019-03-09T05:17:26.573Z,7.97
2019-03-09T05:19:55.873Z,7.99
2019-03-09T05:22:25.000Z,7.95
2019-03-09T05:24:54.249Z,7.96
2019-03-09T05:27:23.492Z,7.94
2019-03-09T05:29:52.864Z,8.00
2019-03-09T05:32:22.093Z,8.01
2019-03-09T05:34:51.368Z,7.99
2019-03-09T05:37:20.588Z,7.95
2019-03-09T05:39:51.518Z,7.97
2019-03-09T05:42:20.794Z,7.95
2019-03-09T05:44:49.875Z,7.93
2019-03-09T05:47:19.110Z,8.00
2019-03-09T05:49:48.285Z,8.05
2019-03-09T05:52:33.419Z,8.03
2019-03-09T05:55:09.634Z,8.05
2019-03-09T05:57:38.898Z,7.98
2019-03-09T06:00:08.643Z,7.95
2019-03-09T06:02:37.873Z,8.01
2019-03-09T06:05:31.953Z,8.01
2019-03-09T06:08:01.066Z,7.98
2019-03-09T06:10:30.170Z,8.00
2019-03-09T06:12:59.483Z,7.97
2019-03-09T06:15:28.791Z,7.92
2019-03-09T06:17:58.065Z,7.92
2019-03-09T06:20:27.370Z,7.90
2019-03-09T06:22:56.561Z,7.82
2019-03-09T06:25:26.074Z,7.89
2019-03-09T06:27:55.379Z,7.89
2019-03-09T06:30:24.717Z,7.88
2019-03-09T06:33:29.287Z,7.90
2019-03-09T06:36:48.057Z,7.93
2019-03-09T06:39:26.266Z,7.87
2019-03-09T06:42:31.063Z,7.89
2019-03-09T06:45:01.174Z,7.87
2019-03-09T06:47:30.679Z,7.83
2019-03-09T06:50:00.001Z,7.86
2019-03-09T06:52:29.165Z,7.91
2019-03-09T06:54:58.316Z,7.83
2019-03-09T06:57:27.710Z,7.83
2019-03-09T06:59:56.838Z,7.80
2019-03-09T07:02:25.972Z,7.88
2019-03-09T07:04:55.277Z,7.88
2019-03-09T07:07:24.601Z,7.89
2019-03-09T07:09:53.780Z,7.87
2019-03-09T07:12:23.133Z,7.94
2019-03-09T07:15:24.491Z,8.02
2019-03-09T07:17:56.472Z,8.13
2019-03-09T07:20:25.694Z,8.26
2019-03-09T07:22:54.979Z,8.34
2019-03-09T07:25:24.397Z,8.41
2019-03-09T07:28:01.503Z,8.48
2019-03-09T07:30:30.672Z,8.54
2019-03-09T07:32:59.951Z,8.59
2019-03-09T07:35:29.249Z,8.71
2019-03-09T07:37:58.335Z,8.79
2019-03-09T07:40:27.757Z,9.06
2019-03-09T07:42:56.839Z,9.16
2019-03-09T07:45:25.909Z,9.25
2019-03-09T07:47:55.143Z,9.55
2019-03-09T07:50:24.212Z,9.81
2019-03-09T07:52:53.515Z,9.92
2019-03-09T07:55:22.559Z,10.04
2019-03-09T07:57:51.776Z,10.15
2019-03-09T08:00:21.430Z,10.22
2019-03-09T08:02:50.702Z,10.41
2019-03-09T08:05:19.825Z,10.45
2019-03-09T08:07:49.140Z,10.38
2019-03-09T08:10:19.140Z,10.50
2019-03-09T08:12:48.262Z,10.59
2019-03-09T08:15:18.261Z,10.56
2019-03-09T08:17:47.589Z,10.62
2019-03-09T08:20:16.987Z,10.76
2019-03-09T08:22:46.140Z,10.91
2019-03-09T08:25:16.082Z,11.09
2019-03-09T08:27:45.530Z,11.21
2019-03-09T08:30:16.759Z,11.25
2019-03-09T08:32:45.917Z,11.39
2019-03-09T08:35:16.787Z,11.52
2019-03-09T08:37:46.273Z,11.80
2019-03-09T08:40:15.992Z,11.99
2019-03-09T08:42:45.101Z,12.05
2019-03-09T08:45:15.917Z,12.08
2019-03-09T08:47:52.074Z,12.10
2019-03-09T08:50:17.669Z,12.02
2019-03-09T08:52:47.196Z,11.72
2019-03-09T08:55:18.068Z,11.68
2019-03-09T08:57:47.453Z,11.43
2019-03-09T09:00:22.005Z,11.43
2019-03-09T09:02:51.114Z,11.32
2019-03-09T09:05:20.257Z,11.28
2019-03-09T09:07:49.616Z,11.24
2019-03-09T09:10:18.851Z,11.21
2019-03-09T09:12:48.002Z,11.26
2019-03-09T09:15:17.239Z,11.40
2019-03-09T09:17:46.426Z,11.38
2019-03-09T09:20:17.216Z,11.44
2019-03-09T09:22:46.364Z,11.45
2019-03-09T09:25:15.605Z,11.44
2019-03-09T09:27:44.796Z,11.35
2019-03-09T09:30:19.399Z,11.37
2019-03-09T09:32:48.503Z,11.40
2019-03-09T09:35:18.109Z,11.26
2019-03-09T09:37:47.283Z,11.24
2019-03-09T09:40:18.283Z,11.32
2019-03-09T09:42:47.444Z,11.38
2019-03-09T09:45:16.650Z,10.79
2019-03-09T09:47:45.937Z,11.50
2019-03-09T09:50:15.481Z,11.52
2019-03-09T09:52:44.589Z,11.44
2019-03-09T09:55:14.623Z,11.35
2019-03-09T09:57:44.128Z,11.32
2019-03-09T10:00:18.180Z,11.30
2019-03-09T10:02:47.304Z,11.35
2019-03-09T10:05:16.386Z,11.34
2019-03-09T10:07:45.574Z,11.41
2019-03-09T10:10:16.787Z,11.40
2019-03-09T10:12:45.928Z,11.46
2019-03-09T10:15:17.428Z,11.44
2019-03-09T10:17:47.811Z,11.45
2019-03-09T10:20:16.973Z,11.51
2019-03-09T10:22:46.195Z,11.56
2019-03-09T10:25:15.293Z,11.64
2019-03-09T10:27:44.441Z,11.64
2019-03-09T10:30:17.432Z,11.69
2019-03-09T10:32:46.641Z,11.79
2019-03-09T10:35:15.793Z,11.81
2019-03-09T10:37:44.984Z,11.75
2019-03-09T10:40:14.678Z,11.73
2019-03-09T10:42:43.850Z,11.68
2019-03-09T10:45:13.083Z,11.77
2019-03-09T10:47:43.291Z,11.77
2019-03-09T10:50:13.202Z,11.80
2019-03-09T10:52:42.419Z,11.77
2019-03-09T10:55:13.902Z,11.76
2019-03-09T10:57:43.561Z,11.76
2019-03-09T11:00:18.920Z,11.77
2019-03-09T11:02:48.054Z,11.81
2019-03-09T11:05:17.151Z,11.85
2019-03-09T11:07:46.404Z,11.86
2019-03-09T11:10:15.534Z,11.93
2019-03-09T11:12:44.766Z,11.95
2019-03-09T11:15:14.275Z,11.91
2019-03-09T11:17:43.385Z,11.90
2019-03-09T11:20:13.616Z,11.80
2019-03-09T11:22:42.858Z,11.75
2019-03-09T11:25:12.174Z,11.80
2019-03-09T11:27:41.248Z,11.90
2019-03-09T11:30:16.192Z,11.86
2019-03-09T11:32:45.315Z,11.81
2019-03-09T11:35:14.878Z,11.70
2019-03-09T11:37:44.091Z,11.59
2019-03-09T11:40:13.243Z,11.59
2019-03-09T11:42:42.382Z,11.60
2019-03-09T11:45:12.165Z,11.58
2019-03-09T11:47:41.523Z,11.58
2019-03-09T11:50:11.136Z,11.45
2019-03-09T11:52:40.240Z,11.47
2019-03-09T11:55:09.824Z,11.29
2019-03-09T11:57:40.743Z,11.11
2019-03-09T12:00:11.891Z,11.04
2019-03-09T12:02:41.137Z,11.00
2019-03-09T12:05:10.922Z,10.97
2019-03-09T12:07:40.475Z,10.94
2019-03-09T12:10:10.213Z,10.92
2019-03-09T12:12:39.600Z,11.04
2019-03-09T12:15:09.943Z,11.07
2019-03-09T12:17:39.223Z,10.99
2019-03-09T12:20:08.603Z,11.05
2019-03-09T12:22:38.012Z,11.07
2019-03-09T12:25:08.059Z,11.06
2019-03-09T12:27:37.456Z,11.09
2019-03-09T12:30:07.811Z,10.98
2019-03-09T12:32:37.397Z,10.97
2019-03-09T12:35:06.800Z,11.09
2019-03-09T12:37:36.200Z,11.09
2019-03-09T12:40:05.630Z,11.13
2019-03-09T12:42:34.757Z,11.19
2019-03-09T12:45:06.483Z,11.24
2019-03-09T12:47:35.761Z,11.20
2019-03-09T12:50:05.783Z,11.18
2019-03-09T12:52:35.080Z,11.18
2019-03-09T12:55:04.598Z,11.20
2019-03-09T12:57:33.835Z,11.16
2019-03-09T13:00:02.935Z,11.18
2019-03-09T13:02:32.360Z,11.14
2019-03-09T13:05:02.221Z,11.03
2019-03-09T13:07:31.368Z,11.01
2019-03-09T13:10:00.854Z,11.08
2019-03-09T13:12:29.999Z,11.04
2019-03-09T13:14:59.105Z,10.72
2019-03-09T13:17:28.250Z,10.94
2019-03-09T13:19:57.417Z,10.94
2019-03-09T13:22:26.924Z,10.96
2019-03-09T13:24:56.013Z,10.95
2019-03-09T13:27:25.365Z,11.07
2019-03-09T13:29:54.601Z,11.05
2019-03-09T13:32:24.210Z,10.96
2019-03-09T13:34:54.430Z,10.83
2019-03-09T13:37:24.469Z,10.81
2019-03-09T13:39:53.686Z,10.85
2019-03-09T13:42:23.385Z,10.93
2019-03-09T13:44:52.797Z,10.90
2019-03-09T13:47:21.924Z,10.74
2019-03-09T13:49:51.171Z,10.61
2019-03-09T13:52:20.854Z,10.58
2019-03-09T13:54:49.982Z,10.53
2019-03-09T13:57:19.074Z,10.44
2019-03-09T13:59:48.534Z,10.44
2019-03-09T14:02:19.201Z,10.56
2019-03-09T14:04:48.667Z,10.53
2019-03-09T14:07:18.843Z,10.58
2019-03-09T14:09:47.947Z,10.59
2019-03-09T14:12:17.249Z,10.54
2019-03-09T14:14:46.481Z,10.50
2019-03-09T14:17:15.554Z,10.53
2019-03-09T14:19:44.757Z,10.46
2019-03-09T14:22:13.872Z,10.49
2019-03-09T14:24:43.127Z,10.49
2019-03-09T14:27:12.638Z,10.53
2019-03-09T14:29:41.925Z,10.58
2019-03-09T14:32:11.135Z,10.72
2019-03-09T14:34:40.279Z,10.72
2019-03-09T14:37:09.487Z,10.67
2019-03-09T14:39:38.660Z,10.69
2019-03-09T14:42:10.055Z,10.81
2019-03-09T14:44:39.376Z,10.87
2019-03-09T14:47:08.453Z,10.84
2019-03-09T14:49:37.677Z,10.92
2019-03-09T14:52:07.611Z,10.92
2019-03-09T14:54:36.703Z,10.92
2019-03-09T14:57:05.986Z,10.91
2019-03-09T14:59:37.255Z,10.89
2019-03-09T15:02:06.596Z,10.88
2019-03-09T15:04:35.942Z,11.05
2019-03-09T15:07:08.070Z,11.04
2019-03-09T15:09:37.731Z,11.06
2019-03-09T15:12:07.173Z,11.06
2019-03-09T15:14:36.359Z,11.01
2019-03-09T15:17:06.324Z,11.00
2019-03-09T15:19:36.885Z,11.01
2019-03-09T15:22:07.657Z,11.06
2019-03-09T15:24:37.313Z,11.05
2019-03-09T15:27:06.563Z,11.03
2019-03-09T15:29:36.022Z,11.01
2019-03-09T15:32:05.173Z,11.00
2019-03-09T15:34:34.530Z,10.94
2019-03-09T15:37:04.262Z,10.91
2019-03-09T15:39:34.323Z,10.96
2019-03-09T15:42:04.477Z,10.96
2019-03-09T15:44:54.955Z,10.97
2019-03-09T15:47:28.811Z,10.99
2019-03-09T15:50:00.857Z,10.99
2019-03-09T15:52:33.767Z,11.05
2019-03-09T15:55:23.690Z,10.95
2019-03-09T15:58:33.800Z,11.04
2019-03-09T16:01:29.039Z,11.12
2019-03-09T16:04:14.000Z,11.19
2019-03-09T16:18:15.521Z,11.33
2019-03-09T16:21:46.483Z,11.30
2019-03-09T16:24:55.713Z,11.35
2019-03-09T16:27:34.005Z,11.41
2019-03-09T16:31:00.739Z,11.48
2019-03-09T16:37:26.879Z,11.40
2019-03-09T16:40:40.168Z,11.47
2019-03-09T16:46:52.106Z,11.57
2019-03-09T16:49:21.633Z,11.58
2019-03-09T16:51:51.739Z,11.58
2019-03-09T16:54:20.840Z,11.67
2019-03-09T16:56:50.239Z,11.62
2019-03-09T16:59:19.511Z,11.67
2019-03-09T17:01:48.717Z,11.72
2019-03-09T17:04:27.178Z,11.73
2019-03-09T17:07:01.653Z,11.79
2019-03-09T17:09:45.424Z,11.81
2019-03-09T17:13:07.454Z,11.87
2019-03-09T17:15:53.094Z,11.90
2019-03-09T17:18:22.549Z,11.95
2019-03-09T17:20:51.645Z,11.92
2019-03-09T17:23:20.719Z,11.92
2019-03-09T17:25:50.021Z,11.92
2019-03-09T17:28:19.185Z,11.96
2019-03-09T17:30:48.735Z,11.99
2019-03-09T17:33:17.770Z,11.99
2019-03-09T17:35:46.934Z,12.04
2019-03-09T17:38:16.139Z,12.05
2019-03-09T17:40:45.367Z,12.06
2019-03-09T17:43:14.469Z,12.06
2019-03-09T17:45:43.826Z,12.08
2019-03-09T17:48:13.036Z,12.04
2019-03-09T17:50:42.368Z,12.09
2019-03-09T17:53:13.915Z,12.07
2019-03-09T17:55:42.638Z,12.13
2019-03-09T17:58:11.779Z,12.13
2019-03-09T18:00:43.886Z,12.13
2019-03-09T18:03:13.386Z,12.17
2019-03-09T18:05:42.546Z,12.23
2019-03-09T18:08:11.646Z,12.20
2019-03-09T18:10:46.798Z,12.19
2019-03-09T18:13:16.098Z,12.20
2019-03-09T18:15:45.468Z,12.21
2019-03-09T18:18:14.569Z,12.21
2019-03-09T18:20:43.639Z,12.21
2019-03-09T18:23:12.758Z,12.18
2019-03-09T18:25:42.072Z,12.20
2019-03-09T18:28:11.303Z,12.14
2019-03-09T18:30:40.578Z,12.17
2019-03-09T18:33:09.718Z,12.18
2019-03-09T18:35:38.777Z,12.23
2019-03-09T18:38:08.338Z,12.25
2019-03-09T18:40:37.435Z,12.22
2019-03-09T18:43:06.703Z,12.26
2019-03-09T18:45:35.959Z,12.27
2019-03-09T18:48:05.109Z,12.26
2019-03-09T18:50:34.343Z,12.26
2019-03-09T18:53:05.201Z,12.25
2019-03-09T18:55:34.668Z,12.25
2019-03-09T18:58:03.772Z,12.08
2019-03-09T19:00:33.392Z,12.15
2019-03-09T19:03:02.721Z,12.22
2019-03-09T19:05:31.811Z,12.20
2019-03-09T19:08:01.007Z,12.18
